sensor_id;sensor_type;location;lat;lon;timestamp;P1;durP1;ratioP1;P2;durP2;ratioP2
56242;SDS011;42155;53.096;23.226;2022-07-23T00:01:12;14.73;;;8.43;;
56242;SDS011;42155;53.096;23.226;2022-07-23T00:03:13;13.05;;;7.60;;
56242;SDS011;42155;53.096;23.226;2022-07-23T00:05:13;11.35;;;7.80;;
56242;SDS011;42155;53.096;23.226;2022-07-23T00:07:14;12.30;;;8.38;;
56242;SDS011;42155;53.096;23.226;2022-07-23T00:09:14;13.82;;;8.60;;
56242;SDS011;42155;53.096;23.226;2022-07-23T00:11:14;12.57;;;8.73;;
56242;SDS011;42155;53.096;23.226;2022-07-23T00:13:15;12.43;;;7.60;;
56242;SDS011;42155;53.096;23.226;2022-07-23T00:15:15;11.40;;;8.05;;
56242;SDS011;42155;53.096;23.226;2022-07-23T00:17:15;12.38;;;8.10;;
56242;SDS011;42155;53.096;23.226;2022-07-23T00:19:16;13.73;;;8.25;;
56242;SDS011;42155;53.096;23.226;2022-07-23T00:21:16;12.10;;;8.98;;
56242;SDS011;42155;53.096;23.226;2022-07-23T00:23:16;18.40;;;9.15;;
56242;SDS011;42155;53.096;23.226;2022-07-23T00:25:17;16.50;;;9.73;;
56242;SDS011;42155;53.096;23.226;2022-07-23T00:27:18;12.43;;;8.60;;
56242;SDS011;42155;53.096;23.226;2022-07-23T00:29:18;13.95;;;8.55;;
56242;SDS011;42155;53.096;23.226;2022-07-23T00:31:18;12.35;;;8.48;;
56242;SDS011;42155;53.096;23.226;2022-07-23T00:33:19;14.40;;;8.15;;
56242;SDS011;42155;53.096;23.226;2022-07-23T00:35:20;12.15;;;7.97;;
56242;SDS011;42155;53.096;23.226;2022-07-23T00:37:21;12.23;;;8.25;;
56242;SDS011;42155;53.096;23.226;2022-07-23T00:39:21;9.98;;;8.10;;
56242;SDS011;42155;53.096;23.226;2022-07-23T00:41:22;10.60;;;7.72;;
56242;SDS011;42155;53.096;23.226;2022-07-23T00:43:23;11.40;;;7.85;;
56242;SDS011;42155;53.096;23.226;2022-07-23T00:45:23;13.35;;;8.10;;
56242;SDS011;42155;53.096;23.226;2022-07-23T00:47:23;11.10;;;7.53;;
56242;SDS011;42155;53.096;23.226;2022-07-23T00:49:25;11.38;;;7.57;;
56242;SDS011;42155;53.096;23.226;2022-07-23T00:51:29;14.02;;;8.77;;
56242;SDS011;42155;53.096;23.226;2022-07-23T00:53:30;11.43;;;8.07;;
56242;SDS011;42155;53.096;23.226;2022-07-23T00:55:30;11.95;;;8.82;;
56242;SDS011;42155;53.096;23.226;2022-07-23T00:57:31;10.23;;;7.72;;
56242;SDS011;42155;53.096;23.226;2022-07-23T00:59:32;15.02;;;8.52;;
56242;SDS011;42155;53.096;23.226;2022-07-23T01:01:32;11.15;;;8.77;;
56242;SDS011;42155;53.096;23.226;2022-07-23T01:03:32;11.07;;;7.85;;
56242;SDS011;42155;53.096;23.226;2022-07-23T01:05:33;14.23;;;8.35;;
56242;SDS011;42155;53.096;23.226;2022-07-23T01:07:33;10.55;;;7.97;;
56242;SDS011;42155;53.096;23.226;2022-07-23T01:09:34;10.75;;;8.23;;
56242;SDS011;42155;53.096;23.226;2022-07-23T01:11:35;12.60;;;8.05;;
56242;SDS011;42155;53.096;23.226;2022-07-23T01:13:40;12.48;;;7.78;;
56242;SDS011;42155;53.096;23.226;2022-07-23T01:15:41;11.68;;;7.63;;
56242;SDS011;42155;53.096;23.226;2022-07-23T01:17:41;11.18;;;8.02;;
56242;SDS011;42155;53.096;23.226;2022-07-23T01:19:41;10.15;;;7.97;;
56242;SDS011;42155;53.096;23.226;2022-07-23T01:21:46;13.07;;;8.63;;
56242;SDS011;42155;53.096;23.226;2022-07-23T01:23:48;10.68;;;8.05;;
56242;SDS011;42155;53.096;23.226;2022-07-23T01:25:49;16.80;;;8.50;;
56242;SDS011;42155;53.096;23.226;2022-07-23T01:27:52;10.65;;;7.07;;
56242;SDS011;42155;53.096;23.226;2022-07-23T01:29:54;9.30;;;6.90;;
56242;SDS011;42155;53.096;23.226;2022-07-23T01:31:55;13.95;;;7.55;;
56242;SDS011;42155;53.096;23.226;2022-07-23T01:33:55;10.10;;;7.57;;
56242;SDS011;42155;53.096;23.226;2022-07-23T01:35:55;11.48;;;7.68;;
56242;SDS011;42155;53.096;23.226;2022-07-23T01:37:55;9.65;;;7.50;;
56242;SDS011;42155;53.096;23.226;2022-07-23T01:39:56;12.70;;;7.93;;
56242;SDS011;42155;53.096;23.226;2022-07-23T01:41:56;10.95;;;8.52;;
56242;SDS011;42155;53.096;23.226;2022-07-23T01:43:56;11.07;;;7.68;;
56242;SDS011;42155;53.096;23.226;2022-07-23T01:45:57;10.88;;;8.43;;
56242;SDS011;42155;53.096;23.226;2022-07-23T01:47:57;11.55;;;8.20;;
56242;SDS011;42155;53.096;23.226;2022-07-23T01:49:57;10.25;;;7.80;;
56242;SDS011;42155;53.096;23.226;2022-07-23T01:51:58;10.77;;;8.02;;
56242;SDS011;42155;53.096;23.226;2022-07-23T01:53:58;10.10;;;8.07;;
56242;SDS011;42155;53.096;23.226;2022-07-23T01:55:59;12.60;;;8.60;;
56242;SDS011;42155;53.096;23.226;2022-07-23T01:57:59;13.27;;;9.15;;
56242;SDS011;42155;53.096;23.226;2022-07-23T02:00:00;11.35;;;7.78;;
56242;SDS011;42155;53.096;23.226;2022-07-23T02:02:00;11.60;;;8.32;;
56242;SDS011;42155;53.096;23.226;2022-07-23T02:04:01;10.40;;;8.30;;
56242;SDS011;42155;53.096;23.226;2022-07-23T02:06:01;9.70;;;7.88;;
56242;SDS011;42155;53.096;23.226;2022-07-23T02:08:01;12.73;;;8.05;;
56242;SDS011;42155;53.096;23.226;2022-07-23T02:10:02;12.30;;;9.05;;
56242;SDS011;42155;53.096;23.226;2022-07-23T02:12:02;11.35;;;8.52;;
56242;SDS011;42155;53.096;23.226;2022-07-23T02:14:03;13.32;;;8.70;;
56242;SDS011;42155;53.096;23.226;2022-07-23T02:16:03;13.40;;;10.02;;
56242;SDS011;42155;53.096;23.226;2022-07-23T02:18:04;15.57;;;9.73;;
56242;SDS011;42155;53.096;23.226;2022-07-23T02:20:05;10.93;;;7.90;;
56242;SDS011;42155;53.096;23.226;2022-07-23T02:22:08;10.27;;;7.53;;
56242;SDS011;42155;53.096;23.226;2022-07-23T02:24:08;12.10;;;8.75;;
56242;SDS011;42155;53.096;23.226;2022-07-23T02:26:09;10.45;;;7.47;;
56242;SDS011;42155;53.096;23.226;2022-07-23T02:28:09;10.98;;;7.32;;
56242;SDS011;42155;53.096;23.226;2022-07-23T02:30:10;12.40;;;7.80;;
56242;SDS011;42155;53.096;23.226;2022-07-23T02:32:11;9.60;;;6.60;;
56242;SDS011;42155;53.096;23.226;2022-07-23T02:34:11;13.63;;;7.82;;
56242;SDS011;42155;53.096;23.226;2022-07-23T02:36:11;8.90;;;7.20;;
56242;SDS011;42155;53.096;23.226;2022-07-23T02:38:12;9.63;;;7.43;;
56242;SDS011;42155;53.096;23.226;2022-07-23T02:40:12;11.32;;;7.15;;
56242;SDS011;42155;53.096;23.226;2022-07-23T02:42:12;10.50;;;7.47;;
56242;SDS011;42155;53.096;23.226;2022-07-23T02:44:13;13.60;;;8.23;;
56242;SDS011;42155;53.096;23.226;2022-07-23T02:46:13;15.80;;;9.05;;
56242;SDS011;42155;53.096;23.226;2022-07-23T02:48:13;10.23;;;8.25;;
56242;SDS011;42155;53.096;23.226;2022-07-23T02:50:14;13.13;;;8.45;;
56242;SDS011;42155;53.096;23.226;2022-07-23T02:52:14;12.02;;;8.45;;
56242;SDS011;42155;53.096;23.226;2022-07-23T02:54:14;15.30;;;9.75;;
56242;SDS011;42155;53.096;23.226;2022-07-23T02:56:15;9.45;;;7.28;;
56242;SDS011;42155;53.096;23.226;2022-07-23T02:58:15;9.52;;;7.28;;
56242;SDS011;42155;53.096;23.226;2022-07-23T03:00:16;13.77;;;9.32;;
56242;SDS011;42155;53.096;23.226;2022-07-23T03:02:16;11.68;;;8.38;;
56242;SDS011;42155;53.096;23.226;2022-07-23T03:04:16;16.20;;;9.68;;
56242;SDS011;42155;53.096;23.226;2022-07-23T03:06:17;11.57;;;9.25;;
56242;SDS011;42155;53.096;23.226;2022-07-23T03:08:17;9.77;;;7.63;;
56242;SDS011;42155;53.096;23.226;2022-07-23T03:10:18;10.95;;;8.15;;
56242;SDS011;42155;53.096;23.226;2022-07-23T03:12:18;11.30;;;8.77;;
56242;SDS011;42155;53.096;23.226;2022-07-23T03:14:18;12.88;;;8.75;;
56242;SDS011;42155;53.096;23.226;2022-07-23T03:16:19;17.77;;;9.10;;
56242;SDS011;42155;53.096;23.226;2022-07-23T03:18:19;11.48;;;8.55;;
56242;SDS011;42155;53.096;23.226;2022-07-23T03:20:19;11.15;;;8.80;;
56242;SDS011;42155;53.096;23.226;2022-07-23T03:24:30;9.20;;;7.05;;
56242;SDS011;42155;53.096;23.226;2022-07-23T03:26:30;11.13;;;7.25;;
56242;SDS011;42155;53.096;23.226;2022-07-23T03:28:31;10.35;;;7.35;;
56242;SDS011;42155;53.096;23.226;2022-07-23T03:30:31;12.18;;;8.68;;
56242;SDS011;42155;53.096;23.226;2022-07-23T03:32:31;10.95;;;8.02;;
56242;SDS011;42155;53.096;23.226;2022-07-23T03:34:32;17.05;;;8.35;;
56242;SDS011;42155;53.096;23.226;2022-07-23T03:36:32;10.65;;;8.30;;
56242;SDS011;42155;53.096;23.226;2022-07-23T03:38:32;13.43;;;9.25;;
56242;SDS011;42155;53.096;23.226;2022-07-23T03:40:33;11.45;;;9.05;;
56242;SDS011;42155;53.096;23.226;2022-07-23T03:42:33;15.60;;;10.48;;
56242;SDS011;42155;53.096;23.226;2022-07-23T03:44:33;14.93;;;11.05;;
56242;SDS011;42155;53.096;23.226;2022-07-23T03:46:34;15.10;;;9.95;;
56242;SDS011;42155;53.096;23.226;2022-07-23T03:48:34;13.70;;;9.48;;
56242;SDS011;42155;53.096;23.226;2022-07-23T03:50:35;12.00;;;9.32;;
56242;SDS011;42155;53.096;23.226;2022-07-23T03:52:35;11.98;;;8.68;;
56242;SDS011;42155;53.096;23.226;2022-07-23T03:54:36;13.52;;;8.50;;
56242;SDS011;42155;53.096;23.226;2022-07-23T03:56:36;12.57;;;8.25;;
56242;SDS011;42155;53.096;23.226;2022-07-23T03:58:37;12.82;;;8.90;;
56242;SDS011;42155;53.096;23.226;2022-07-23T04:00:37;9.18;;;7.55;;
56242;SDS011;42155;53.096;23.226;2022-07-23T04:02:37;10.13;;;7.63;;
56242;SDS011;42155;53.096;23.226;2022-07-23T04:04:37;12.82;;;9.23;;
56242;SDS011;42155;53.096;23.226;2022-07-23T04:06:38;14.48;;;8.77;;
56242;SDS011;42155;53.096;23.226;2022-07-23T04:08:38;16.48;;;10.27;;
56242;SDS011;42155;53.096;23.226;2022-07-23T04:10:38;15.90;;;9.95;;
56242;SDS011;42155;53.096;23.226;2022-07-23T04:12:39;11.38;;;9.38;;
56242;SDS011;42155;53.096;23.226;2022-07-23T04:14:39;20.05;;;10.48;;
56242;SDS011;42155;53.096;23.226;2022-07-23T04:16:40;14.57;;;10.45;;
56242;SDS011;42155;53.096;23.226;2022-07-23T04:18:40;12.35;;;10.73;;
56242;SDS011;42155;53.096;23.226;2022-07-23T04:20:40;15.05;;;10.80;;
56242;SDS011;42155;53.096;23.226;2022-07-23T04:22:40;15.10;;;10.27;;
56242;SDS011;42155;53.096;23.226;2022-07-23T04:24:41;14.85;;;10.63;;
56242;SDS011;42155;53.096;23.226;2022-07-23T04:26:41;18.38;;;10.88;;
56242;SDS011;42155;53.096;23.226;2022-07-23T04:28:42;12.07;;;9.00;;
56242;SDS011;42155;53.096;23.226;2022-07-23T04:30:42;12.88;;;9.45;;
56242;SDS011;42155;53.096;23.226;2022-07-23T04:32:42;12.02;;;8.27;;
56242;SDS011;42155;53.096;23.226;2022-07-23T04:34:43;15.77;;;8.05;;
56242;SDS011;42155;53.096;23.226;2022-07-23T04:36:43;13.75;;;8.75;;
56242;SDS011;42155;53.096;23.226;2022-07-23T04:38:44;16.20;;;8.48;;
56242;SDS011;42155;53.096;23.226;2022-07-23T04:40:44;11.25;;;7.93;;
56242;SDS011;42155;53.096;23.226;2022-07-23T04:42:44;12.02;;;8.38;;
56242;SDS011;42155;53.096;23.226;2022-07-23T04:44:45;10.15;;;7.95;;
56242;SDS011;42155;53.096;23.226;2022-07-23T04:46:45;10.95;;;7.82;;
56242;SDS011;42155;53.096;23.226;2022-07-23T04:48:45;10.52;;;6.97;;
56242;SDS011;42155;53.096;23.226;2022-07-23T04:50:46;9.25;;;7.03;;
56242;SDS011;42155;53.096;23.226;2022-07-23T04:52:46;11.98;;;7.13;;
56242;SDS011;42155;53.096;23.226;2022-07-23T04:54:47;8.52;;;7.15;;
56242;SDS011;42155;53.096;23.226;2022-07-23T04:56:48;8.82;;;6.65;;
56242;SDS011;42155;53.096;23.226;2022-07-23T04:58:48;8.77;;;7.43;;
56242;SDS011;42155;53.096;23.226;2022-07-23T05:00:49;9.18;;;6.80;;
56242;SDS011;42155;53.096;23.226;2022-07-23T05:02:49;9.52;;;6.40;;
56242;SDS011;42155;53.096;23.226;2022-07-23T05:04:49;7.25;;;6.50;;
56242;SDS011;42155;53.096;23.226;2022-07-23T05:06:50;7.78;;;6.47;;
56242;SDS011;42155;53.096;23.226;2022-07-23T05:08:50;8.02;;;7.10;;
56242;SDS011;42155;53.096;23.226;2022-07-23T05:10:50;9.23;;;7.22;;
56242;SDS011;42155;53.096;23.226;2022-07-23T05:12:51;10.68;;;6.75;;
56242;SDS011;42155;53.096;23.226;2022-07-23T05:14:51;10.75;;;7.40;;
56242;SDS011;42155;53.096;23.226;2022-07-23T05:16:51;7.97;;;7.10;;
56242;SDS011;42155;53.096;23.226;2022-07-23T05:18:52;9.20;;;7.25;;
56242;SDS011;42155;53.096;23.226;2022-07-23T05:20:52;11.00;;;6.97;;
56242;SDS011;42155;53.096;23.226;2022-07-23T05:22:52;10.73;;;6.30;;
56242;SDS011;42155;53.096;23.226;2022-07-23T05:24:52;10.35;;;6.50;;
56242;SDS011;42155;53.096;23.226;2022-07-23T05:26:53;9.63;;;6.43;;
56242;SDS011;42155;53.096;23.226;2022-07-23T05:28:53;10.02;;;6.60;;
56242;SDS011;42155;53.096;23.226;2022-07-23T05:30:53;9.23;;;6.85;;
56242;SDS011;42155;53.096;23.226;2022-07-23T05:32:54;10.77;;;6.22;;
56242;SDS011;42155;53.096;23.226;2022-07-23T05:34:54;10.77;;;6.78;;
56242;SDS011;42155;53.096;23.226;2022-07-23T05:36:55;9.15;;;6.35;;
56242;SDS011;42155;53.096;23.226;2022-07-23T05:38:55;10.30;;;6.53;;
56242;SDS011;42155;53.096;23.226;2022-07-23T05:40:55;8.63;;;5.93;;
56242;SDS011;42155;53.096;23.226;2022-07-23T05:42:56;10.13;;;6.43;;
56242;SDS011;42155;53.096;23.226;2022-07-23T05:44:56;10.63;;;6.40;;
56242;SDS011;42155;53.096;23.226;2022-07-23T05:46:57;13.13;;;6.28;;
56242;SDS011;42155;53.096;23.226;2022-07-23T05:48:57;14.25;;;6.50;;
56242;SDS011;42155;53.096;23.226;2022-07-23T05:50:58;7.55;;;6.53;;
56242;SDS011;42155;53.096;23.226;2022-07-23T05:52:58;14.55;;;6.35;;
56242;SDS011;42155;53.096;23.226;2022-07-23T05:54:58;10.35;;;6.15;;
56242;SDS011;42155;53.096;23.226;2022-07-23T05:56:59;8.93;;;6.43;;
56242;SDS011;42155;53.096;23.226;2022-07-23T05:58:59;9.07;;;6.30;;
56242;SDS011;42155;53.096;23.226;2022-07-23T06:00:59;10.75;;;6.30;;
56242;SDS011;42155;53.096;23.226;2022-07-23T06:03:00;8.80;;;6.43;;
56242;SDS011;42155;53.096;23.226;2022-07-23T06:05:00;9.65;;;6.50;;
56242;SDS011;42155;53.096;23.226;2022-07-23T06:07:00;8.68;;;6.00;;
56242;SDS011;42155;53.096;23.226;2022-07-23T06:09:01;7.85;;;5.90;;
56242;SDS011;42155;53.096;23.226;2022-07-23T06:11:01;10.60;;;6.10;;
56242;SDS011;42155;53.096;23.226;2022-07-23T06:13:01;11.07;;;6.25;;
56242;SDS011;42155;53.096;23.226;2022-07-23T06:15:02;8.73;;;6.22;;
56242;SDS011;42155;53.096;23.226;2022-07-23T06:17:03;8.98;;;6.55;;
56242;SDS011;42155;53.096;23.226;2022-07-23T06:19:03;9.05;;;6.30;;
56242;SDS011;42155;53.096;23.226;2022-07-23T06:21:04;6.95;;;5.85;;
56242;SDS011;42155;53.096;23.226;2022-07-23T06:23:04;11.88;;;5.72;;
56242;SDS011;42155;53.096;23.226;2022-07-23T06:25:05;11.68;;;6.55;;
56242;SDS011;42155;53.096;23.226;2022-07-23T06:27:07;12.25;;;6.45;;
56242;SDS011;42155;53.096;23.226;2022-07-23T06:29:07;10.05;;;5.80;;
56242;SDS011;42155;53.096;23.226;2022-07-23T06:31:08;11.18;;;6.28;;
56242;SDS011;42155;53.096;23.226;2022-07-23T06:33:08;9.10;;;6.20;;
56242;SDS011;42155;53.096;23.226;2022-07-23T06:35:08;9.63;;;5.75;;
56242;SDS011;42155;53.096;23.226;2022-07-23T06:37:09;9.95;;;6.40;;
56242;SDS011;42155;53.096;23.226;2022-07-23T06:39:09;13.05;;;6.47;;
56242;SDS011;42155;53.096;23.226;2022-07-23T06:41:09;10.20;;;6.05;;
56242;SDS011;42155;53.096;23.226;2022-07-23T06:43:10;12.15;;;6.18;;
56242;SDS011;42155;53.096;23.226;2022-07-23T06:45:10;15.60;;;7.30;;
56242;SDS011;42155;53.096;23.226;2022-07-23T06:47:10;11.50;;;6.78;;
56242;SDS011;42155;53.096;23.226;2022-07-23T06:49:11;12.38;;;5.97;;
56242;SDS011;42155;53.096;23.226;2022-07-23T06:51:11;10.27;;;6.07;;
56242;SDS011;42155;53.096;23.226;2022-07-23T06:53:11;10.63;;;6.13;;
56242;SDS011;42155;53.096;23.226;2022-07-23T06:55:12;10.82;;;6.00;;
56242;SDS011;42155;53.096;23.226;2022-07-23T06:57:12;10.80;;;6.15;;
56242;SDS011;42155;53.096;23.226;2022-07-23T06:59:15;11.18;;;6.18;;
56242;SDS011;42155;53.096;23.226;2022-07-23T07:01:16;12.52;;;5.60;;
56242;SDS011;42155;53.096;23.226;2022-07-23T07:03:16;8.07;;;5.72;;
56242;SDS011;42155;53.096;23.226;2022-07-23T07:05:17;9.82;;;5.53;;
56242;SDS011;42155;53.096;23.226;2022-07-23T07:07:17;9.90;;;5.60;;
56242;SDS011;42155;53.096;23.226;2022-07-23T07:09:18;7.63;;;5.55;;
56242;SDS011;42155;53.096;23.226;2022-07-23T07:11:18;9.63;;;5.88;;
56242;SDS011;42155;53.096;23.226;2022-07-23T07:13:18;10.18;;;6.20;;
56242;SDS011;42155;53.096;23.226;2022-07-23T07:15:19;13.82;;;6.25;;
56242;SDS011;42155;53.096;23.226;2022-07-23T07:17:19;9.23;;;6.10;;
56242;SDS011;42155;53.096;23.226;2022-07-23T07:19:19;8.80;;;6.15;;
56242;SDS011;42155;53.096;23.226;2022-07-23T07:21:20;10.50;;;6.13;;
56242;SDS011;42155;53.096;23.226;2022-07-23T07:23:20;9.65;;;6.18;;
56242;SDS011;42155;53.096;23.226;2022-07-23T07:25:20;12.18;;;6.47;;
56242;SDS011;42155;53.096;23.226;2022-07-23T07:27:21;11.68;;;6.50;;
56242;SDS011;42155;53.096;23.226;2022-07-23T07:29:21;11.23;;;7.22;;
56242;SDS011;42155;53.096;23.226;2022-07-23T07:31:21;13.00;;;7.07;;
56242;SDS011;42155;53.096;23.226;2022-07-23T07:33:22;8.63;;;6.63;;
56242;SDS011;42155;53.096;23.226;2022-07-23T07:35:22;12.15;;;6.25;;
56242;SDS011;42155;53.096;23.226;2022-07-23T07:37:23;11.55;;;6.30;;
56242;SDS011;42155;53.096;23.226;2022-07-23T07:39:23;10.88;;;6.70;;
56242;SDS011;42155;53.096;23.226;2022-07-23T07:41:24;10.73;;;7.05;;
56242;SDS011;42155;53.096;23.226;2022-07-23T07:43:24;11.43;;;6.68;;
56242;SDS011;42155;53.096;23.226;2022-07-23T07:45:24;9.85;;;7.00;;
56242;SDS011;42155;53.096;23.226;2022-07-23T07:47:25;10.13;;;7.35;;
56242;SDS011;42155;53.096;23.226;2022-07-23T07:49:25;12.27;;;6.55;;
56242;SDS011;42155;53.096;23.226;2022-07-23T07:51:26;10.60;;;7.10;;
56242;SDS011;42155;53.096;23.226;2022-07-23T07:53:28;14.63;;;7.97;;
56242;SDS011;42155;53.096;23.226;2022-07-23T07:55:29;14.82;;;7.60;;
56242;SDS011;42155;53.096;23.226;2022-07-23T07:57:29;10.57;;;7.03;;
56242;SDS011;42155;53.096;23.226;2022-07-23T07:59:30;9.90;;;6.97;;
56242;SDS011;42155;53.096;23.226;2022-07-23T08:01:30;12.43;;;7.28;;
56242;SDS011;42155;53.096;23.226;2022-07-23T08:03:31;10.75;;;7.20;;
56242;SDS011;42155;53.096;23.226;2022-07-23T08:05:31;10.25;;;6.65;;
56242;SDS011;42155;53.096;23.226;2022-07-23T08:07:31;15.48;;;7.70;;
56242;SDS011;42155;53.096;23.226;2022-07-23T08:09:32;12.70;;;7.28;;
56242;SDS011;42155;53.096;23.226;2022-07-23T08:11:32;10.18;;;6.95;;
56242;SDS011;42155;53.096;23.226;2022-07-23T08:13:32;11.43;;;6.53;;
56242;SDS011;42155;53.096;23.226;2022-07-23T08:15:33;13.63;;;6.97;;
56242;SDS011;42155;53.096;23.226;2022-07-23T08:17:33;12.52;;;6.70;;
56242;SDS011;42155;53.096;23.226;2022-07-23T08:19:33;8.75;;;6.97;;
56242;SDS011;42155;53.096;23.226;2022-07-23T08:21:34;10.15;;;6.53;;
56242;SDS011;42155;53.096;23.226;2022-07-23T08:23:34;8.98;;;6.53;;
56242;SDS011;42155;53.096;23.226;2022-07-23T08:25:35;8.95;;;6.30;;
56242;SDS011;42155;53.096;23.226;2022-07-23T08:27:40;11.10;;;6.97;;
56242;SDS011;42155;53.096;23.226;2022-07-23T08:29:41;8.32;;;6.72;;
56242;SDS011;42155;53.096;23.226;2022-07-23T08:31:42;13.57;;;6.70;;
56242;SDS011;42155;53.096;23.226;2022-07-23T08:33:43;8.15;;;6.38;;
56242;SDS011;42155;53.096;23.226;2022-07-23T08:35:47;11.85;;;7.03;;
56242;SDS011;42155;53.096;23.226;2022-07-23T08:37:48;9.23;;;6.43;;
56242;SDS011;42155;53.096;23.226;2022-07-23T08:39:49;8.68;;;6.80;;
56242;SDS011;42155;53.096;23.226;2022-07-23T08:41:50;9.57;;;6.70;;
56242;SDS011;42155;53.096;23.226;2022-07-23T08:43:50;12.00;;;6.88;;
56242;SDS011;42155;53.096;23.226;2022-07-23T08:45:53;9.80;;;7.10;;
56242;SDS011;42155;53.096;23.226;2022-07-23T08:47:56;12.68;;;6.70;;
56242;SDS011;42155;53.096;23.226;2022-07-23T08:49:58;13.43;;;6.82;;
56242;SDS011;42155;53.096;23.226;2022-07-23T08:51:58;9.73;;;6.93;;
56242;SDS011;42155;53.096;23.226;2022-07-23T08:53:58;10.00;;;7.05;;
56242;SDS011;42155;53.096;23.226;2022-07-23T08:56:01;10.85;;;7.20;;
56242;SDS011;42155;53.096;23.226;2022-07-23T08:58:02;9.75;;;7.22;;
56242;SDS011;42155;53.096;23.226;2022-07-23T09:00:04;9.70;;;6.88;;
56242;SDS011;42155;53.096;23.226;2022-07-23T09:02:05;9.07;;;6.90;;
56242;SDS011;42155;53.096;23.226;2022-07-23T09:04:05;10.32;;;6.95;;
56242;SDS011;42155;53.096;23.226;2022-07-23T09:06:06;12.10;;;7.63;;
56242;SDS011;42155;53.096;23.226;2022-07-23T09:10:08;10.38;;;7.10;;
56242;SDS011;42155;53.096;23.226;2022-07-23T09:12:10;9.10;;;6.30;;
56242;SDS011;42155;53.096;23.226;2022-07-23T09:14:11;8.05;;;6.72;;
56242;SDS011;42155;53.096;23.226;2022-07-23T09:16:12;12.10;;;7.13;;
56242;SDS011;42155;53.096;23.226;2022-07-23T09:18:15;13.50;;;7.07;;
56242;SDS011;42155;53.096;23.226;2022-07-23T09:20:16;12.30;;;6.90;;
56242;SDS011;42155;53.096;23.226;2022-07-23T09:22:20;10.55;;;7.50;;
56242;SDS011;42155;53.096;23.226;2022-07-23T09:24:22;14.30;;;7.10;;
56242;SDS011;42155;53.096;23.226;2022-07-23T09:26:24;9.98;;;7.25;;
56242;SDS011;42155;53.096;23.226;2022-07-23T09:28:30;10.20;;;7.75;;
56242;SDS011;42155;53.096;23.226;2022-07-23T09:30:31;10.70;;;6.50;;
56242;SDS011;42155;53.096;23.226;2022-07-23T09:32:32;10.88;;;6.38;;
56242;SDS011;42155;53.096;23.226;2022-07-23T09:34:33;9.40;;;6.15;;
56242;SDS011;42155;53.096;23.226;2022-07-23T09:36:34;8.13;;;6.28;;
56242;SDS011;42155;53.096;23.226;2022-07-23T09:38:36;11.93;;;6.50;;
56242;SDS011;42155;53.096;23.226;2022-07-23T09:43:08;10.57;;;6.65;;
56242;SDS011;42155;53.096;23.226;2022-07-23T09:45:10;10.63;;;6.22;;
56242;SDS011;42155;53.096;23.226;2022-07-23T09:47:10;9.05;;;6.75;;
56242;SDS011;42155;53.096;23.226;2022-07-23T09:49:15;11.27;;;6.38;;
56242;SDS011;42155;53.096;23.226;2022-07-23T09:51:20;9.45;;;6.75;;
56242;SDS011;42155;53.096;23.226;2022-07-23T09:53:24;13.40;;;6.75;;
56242;SDS011;42155;53.096;23.226;2022-07-23T09:55:30;10.48;;;6.75;;
56242;SDS011;42155;53.096;23.226;2022-07-23T09:57:32;8.63;;;6.13;;
56242;SDS011;42155;53.096;23.226;2022-07-23T09:59:37;10.70;;;6.47;;
56242;SDS011;42155;53.096;23.226;2022-07-23T10:01:38;10.50;;;6.43;;
56242;SDS011;42155;53.096;23.226;2022-07-23T10:03:39;10.10;;;6.50;;
56242;SDS011;42155;53.096;23.226;2022-07-23T10:05:41;12.02;;;6.65;;
56242;SDS011;42155;53.096;23.226;2022-07-23T10:07:42;9.00;;;5.72;;
56242;SDS011;42155;53.096;23.226;2022-07-23T10:09:42;8.80;;;6.00;;
56242;SDS011;42155;53.096;23.226;2022-07-23T10:11:47;9.05;;;5.57;;
56242;SDS011;42155;53.096;23.226;2022-07-23T10:13:49;11.43;;;5.93;;
56242;SDS011;42155;53.096;23.226;2022-07-23T10:15:50;8.05;;;5.80;;
56242;SDS011;42155;53.096;23.226;2022-07-23T10:17:50;8.10;;;5.93;;
56242;SDS011;42155;53.096;23.226;2022-07-23T10:19:51;8.65;;;5.75;;
56242;SDS011;42155;53.096;23.226;2022-07-23T10:21:52;11.50;;;6.32;;
56242;SDS011;42155;53.096;23.226;2022-07-23T10:26:05;13.02;;;6.10;;
56242;SDS011;42155;53.096;23.226;2022-07-23T10:33:12;7.80;;;5.75;;
56242;SDS011;42155;53.096;23.226;2022-07-23T10:37:17;10.13;;;6.35;;
56242;SDS011;42155;53.096;23.226;2022-07-23T10:39:30;12.27;;;6.40;;
56242;SDS011;42155;53.096;23.226;2022-07-23T10:41:33;7.05;;;5.55;;
56242;SDS011;42155;53.096;23.226;2022-07-23T10:43:35;6.90;;;5.60;;
56242;SDS011;42155;53.096;23.226;2022-07-23T10:45:36;7.90;;;6.28;;
56242;SDS011;42155;53.096;23.226;2022-07-23T10:47:36;9.50;;;6.40;;
56242;SDS011;42155;53.096;23.226;2022-07-23T10:49:36;7.05;;;6.28;;
56242;SDS011;42155;53.096;23.226;2022-07-23T10:51:37;9.10;;;6.00;;
56242;SDS011;42155;53.096;23.226;2022-07-23T10:53:56;9.38;;;6.28;;
56242;SDS011;42155;53.096;23.226;2022-07-23T10:55:58;7.75;;;6.30;;
56242;SDS011;42155;53.096;23.226;2022-07-23T10:57:58;8.68;;;6.03;;
56242;SDS011;42155;53.096;23.226;2022-07-23T11:02:20;10.10;;;6.22;;
56242;SDS011;42155;53.096;23.226;2022-07-23T11:09:25;8.90;;;6.70;;
56242;SDS011;42155;53.096;23.226;2022-07-23T11:11:29;9.35;;;6.35;;
56242;SDS011;42155;53.096;23.226;2022-07-23T11:13:45;7.22;;;6.53;;
56242;SDS011;42155;53.096;23.226;2022-07-23T11:18:05;9.57;;;6.75;;
56242;SDS011;42155;53.096;23.226;2022-07-23T11:22:11;7.03;;;6.15;;
56242;SDS011;42155;53.096;23.226;2022-07-23T11:24:50;8.98;;;6.30;;
56242;SDS011;42155;53.096;23.226;2022-07-23T11:26:54;9.30;;;6.40;;
56242;SDS011;42155;53.096;23.226;2022-07-23T11:29:37;10.52;;;6.35;;
56242;SDS011;42155;53.096;23.226;2022-07-23T11:31:25;10.13;;;6.72;;
56242;SDS011;42155;53.096;23.226;2022-07-23T11:33:25;13.63;;;6.43;;
56242;SDS011;42155;53.096;23.226;2022-07-23T11:35:26;10.40;;;6.90;;
56242;SDS011;42155;53.096;23.226;2022-07-23T11:37:38;11.13;;;6.95;;
56242;SDS011;42155;53.096;23.226;2022-07-23T11:39:40;11.80;;;6.80;;
56242;SDS011;42155;53.096;23.226;2022-07-23T11:41:43;9.30;;;6.97;;
56242;SDS011;42155;53.096;23.226;2022-07-23T11:43:44;9.77;;;6.90;;
56242;SDS011;42155;53.096;23.226;2022-07-23T11:45:45;10.60;;;7.15;;
56242;SDS011;42155;53.096;23.226;2022-07-23T11:47:47;9.38;;;6.78;;
56242;SDS011;42155;53.096;23.226;2022-07-23T11:49:57;13.73;;;7.00;;
56242;SDS011;42155;53.096;23.226;2022-07-23T11:54:12;9.77;;;6.57;;
56242;SDS011;42155;53.096;23.226;2022-07-23T11:56:12;11.93;;;6.93;;
56242;SDS011;42155;53.096;23.226;2022-07-23T11:58:13;9.65;;;6.82;;
56242;SDS011;42155;53.096;23.226;2022-07-23T12:00:17;12.77;;;7.00;;
56242;SDS011;42155;53.096;23.226;2022-07-23T12:02:19;10.05;;;6.95;;
56242;SDS011;42155;53.096;23.226;2022-07-23T12:04:21;10.13;;;6.65;;
56242;SDS011;42155;53.096;23.226;2022-07-23T12:06:21;15.82;;;7.57;;
56242;SDS011;42155;53.096;23.226;2022-07-23T12:08:21;11.45;;;6.90;;
56242;SDS011;42155;53.096;23.226;2022-07-23T12:10:23;11.23;;;6.88;;
56242;SDS011;42155;53.096;23.226;2022-07-23T12:12:27;11.55;;;6.93;;
56242;SDS011;42155;53.096;23.226;2022-07-23T12:14:46;12.82;;;6.75;;
56242;SDS011;42155;53.096;23.226;2022-07-23T12:19:21;9.25;;;6.60;;
56242;SDS011;42155;53.096;23.226;2022-07-23T12:21:21;11.93;;;6.30;;
56242;SDS011;42155;53.096;23.226;2022-07-23T12:23:23;11.32;;;6.55;;
56242;SDS011;42155;53.096;23.226;2022-07-23T12:25:27;10.50;;;7.03;;